Union Springs, New York
Current Conditions -  °F | °C
As of 4:53 AM on Sunday 26 Oct 2014 (Local Time) from KPEO Reporting Station
Clear Clear  
Wind Chill: 44°   Ceiling: Unl
Heat Index: 48°   Visibility: 10mi
Dew Point: 36°   Wind: 8mph
Humidity: 63%   Direction: 230°SW
Pressure: 29.61"   Gusts: 18mph
Location:  42.84°N, 76.69°W
Report Text: KPEO 260853Z AUTO 23007G16KT 10SM CLR 09/02 A2961 RMK AO2 SLP026 T00890022 58003
Loading
Personal Weather Stations






























Interactive Weather Map
Tropical Storm Tracking
New forecast layout! Learn more

10-Day Weather Forecast

Advertisements
Track Severe Weather on mobile